< < Back
Terminal Aerodrome Forecast


Current Version              Previous Versions:   1  2  3  4  5  6  7  8  9  

Terminal Aerodrome Forecast

810
FTUS42 KGSP 291120
TAFAND
TAF
KAND 291120Z 2912/3012 21003KT P6SM SCT250
     FM291600 21006G14KT P6SM FEW110 SCT250
     FM292000 21010G17KT P6SM SCT090 BKN180
     FM292300 21006G14KT P6SM SCT060 BKN090
     FM300500 25006G14KT P6SM BKN050
     FM300800 29008G15KT P6SM FEW060 SCT110 BKN250=



Latest METAR

931
SAUS70 KWBC 301700 RRC
MTRAND
METAR KAND 301656Z AUTO 28008G17KT 10SM CLR 09/M06 A3022 RMK AO2 SLP233
T00941061


USA.gov is the U.S. government's official web portal to all federal, state and local government web resources and services.